sensor_id;sensor_type;location;lat;lon;timestamp;pressure;altitude;pressure_sealevel;temperature;humidity
69780;BME280;57052;55.602;38.096;2022-07-23T00:00:15;100227.69;;;20.43;57.56
69780;BME280;57052;55.602;38.096;2022-07-23T00:02:41;100229.97;;;20.41;57.71
69780;BME280;57052;55.602;38.096;2022-07-23T00:05:07;100225.81;;;20.35;57.67
69780;BME280;57052;55.602;38.096;2022-07-23T00:07:33;100238.44;;;20.36;57.95
69780;BME280;57052;55.602;38.096;2022-07-23T00:09:58;100211.34;;;20.17;58.43
69780;BME280;57052;55.602;38.096;2022-07-23T00:12:24;100236.69;;;20.31;58.18
69780;BME280;57052;55.602;38.096;2022-07-23T00:14:50;100227.66;;;20.22;58.24
69780;BME280;57052;55.602;38.096;2022-07-23T00:17:15;100242.84;;;20.28;58.31
69780;BME280;57052;55.602;38.096;2022-07-23T00:19:41;100229.47;;;20.18;58.56
69780;BME280;57052;55.602;38.096;2022-07-23T00:22:06;100227.03;;;20.17;58.48
69780;BME280;57052;55.602;38.096;2022-07-23T00:24:32;100232.88;;;20.15;58.63
69780;BME280;57052;55.602;38.096;2022-07-23T00:26:57;100240.47;;;20.18;58.64
69780;BME280;57052;55.602;38.096;2022-07-23T00:29:23;100236.09;;;20.17;58.76
69780;BME280;57052;55.602;38.096;2022-07-23T00:31:49;100239.50;;;20.14;58.78
69780;BME280;57052;55.602;38.096;2022-07-23T00:34:14;100238.22;;;20.12;58.66
69780;BME280;57052;55.602;38.096;2022-07-23T00:36:40;100240.19;;;20.11;59.09
69780;BME280;57052;55.602;38.096;2022-07-23T00:39:06;100245.88;;;20.06;58.81
69780;BME280;57052;55.602;38.096;2022-07-23T00:41:32;100228.88;;;20.04;59.14
69780;BME280;57052;55.602;38.096;2022-07-23T00:44:23;100236.19;;;20.00;60.13
69780;BME280;57052;55.602;38.096;2022-07-23T00:46:59;100229.41;;;19.98;60.33
69780;BME280;57052;55.602;38.096;2022-07-23T00:49:29;100229.56;;;20.01;60.35
69780;BME280;57052;55.602;38.096;2022-07-23T00:51:56;100238.59;;;20.02;59.86
69780;BME280;57052;55.602;38.096;2022-07-23T00:54:24;100232.16;;;19.98;60.13
69780;BME280;57052;55.602;38.096;2022-07-23T00:56:50;100232.81;;;19.95;59.86
69780;BME280;57052;55.602;38.096;2022-07-23T00:59:15;100235.09;;;19.93;59.66
69780;BME280;57052;55.602;38.096;2022-07-23T01:01:41;100239.59;;;19.97;59.67
69780;BME280;57052;55.602;38.096;2022-07-23T01:04:09;100226.69;;;19.89;59.83
69780;BME280;57052;55.602;38.096;2022-07-23T01:06:37;100239.47;;;19.94;59.95
69780;BME280;57052;55.602;38.096;2022-07-23T01:09:06;100235.63;;;19.86;60.18
69780;BME280;57052;55.602;38.096;2022-07-23T01:11:36;100222.22;;;19.84;60.37
69780;BME280;57052;55.602;38.096;2022-07-23T01:14:28;100229.81;;;19.79;61.12
69780;BME280;57052;55.602;38.096;2022-07-23T01:16:54;100242.72;;;19.87;60.01
69780;BME280;57052;55.602;38.096;2022-07-23T01:19:20;100235.13;;;19.84;60.09
69780;BME280;57052;55.602;38.096;2022-07-23T01:21:50;100230.63;;;19.79;60.81
69780;BME280;57052;55.602;38.096;2022-07-23T01:24:16;100244.38;;;19.79;60.26
69780;BME280;57052;55.602;38.096;2022-07-23T01:26:45;100234.25;;;19.71;60.34
69780;BME280;57052;55.602;38.096;2022-07-23T01:29:12;100237.13;;;19.75;60.47
69780;BME280;57052;55.602;38.096;2022-07-23T01:31:37;100235.38;;;19.70;60.43
69780;BME280;57052;55.602;38.096;2022-07-23T01:34:03;100214.09;;;19.59;60.49
69780;BME280;57052;55.602;38.096;2022-07-23T01:36:30;100227.47;;;19.69;60.60
69780;BME280;57052;55.602;38.096;2022-07-23T01:38:55;100237.78;;;19.72;60.72
69780;BME280;57052;55.602;38.096;2022-07-23T01:41:21;100234.25;;;19.71;60.79
69780;BME280;57052;55.602;38.096;2022-07-23T01:43:47;100235.72;;;19.69;61.26
69780;BME280;57052;55.602;38.096;2022-07-23T01:46:12;100234.56;;;19.70;60.90
69780;BME280;57052;55.602;38.096;2022-07-23T01:48:38;100218.91;;;19.62;60.82
69780;BME280;57052;55.602;38.096;2022-07-23T01:51:04;100225.84;;;19.68;60.93
69780;BME280;57052;55.602;38.096;2022-07-23T01:53:30;100224.09;;;19.63;60.96
69780;BME280;57052;55.602;38.096;2022-07-23T01:55:59;100228.44;;;19.64;60.96
69780;BME280;57052;55.602;38.096;2022-07-23T01:58:26;100221.53;;;19.58;61.28
69780;BME280;57052;55.602;38.096;2022-07-23T02:00:52;100230.25;;;19.60;61.40
69780;BME280;57052;55.602;38.096;2022-07-23T02:03:18;100229.78;;;19.58;61.46
69780;BME280;57052;55.602;38.096;2022-07-23T02:05:44;100227.34;;;19.57;61.34
69780;BME280;57052;55.602;38.096;2022-07-23T02:08:09;100219.78;;;19.54;61.45
69780;BME280;57052;55.602;38.096;2022-07-23T02:10:35;100223.50;;;19.49;61.43
69780;BME280;57052;55.602;38.096;2022-07-23T02:13:00;100230.09;;;19.57;61.56
69780;BME280;57052;55.602;38.096;2022-07-23T02:15:26;100230.91;;;19.57;61.74
69780;BME280;57052;55.602;38.096;2022-07-23T02:17:52;100228.03;;;19.54;61.84
69780;BME280;57052;55.602;38.096;2022-07-23T02:20:17;100223.66;;;19.53;61.82
69780;BME280;57052;55.602;38.096;2022-07-23T02:22:43;100237.72;;;19.51;61.77
69780;BME280;57052;55.602;38.096;2022-07-23T02:25:09;100234.97;;;19.51;61.91
69780;BME280;57052;55.602;38.096;2022-07-23T02:27:36;100244.97;;;19.56;62.11
69780;BME280;57052;55.602;38.096;2022-07-23T02:30:03;100244.16;;;19.55;61.96
69780;BME280;57052;55.602;38.096;2022-07-23T02:32:29;100236.72;;;19.56;61.94
69780;BME280;57052;55.602;38.096;2022-07-23T02:34:54;100238.31;;;19.57;62.17
69780;BME280;57052;55.602;38.096;2022-07-23T02:37:20;100229.63;;;19.55;62.08
69780;BME280;57052;55.602;38.096;2022-07-23T02:39:46;100231.38;;;19.59;62.11
69780;BME280;57052;55.602;38.096;2022-07-23T02:42:14;100222.66;;;19.57;62.26
69780;BME280;57052;55.602;38.096;2022-07-23T02:44:40;100226.22;;;19.58;62.19
69780;BME280;57052;55.602;38.096;2022-07-23T02:47:06;100223.63;;;19.61;62.18
69780;BME280;57052;55.602;38.096;2022-07-23T02:49:32;100224.41;;;19.62;62.23
69780;BME280;57052;55.602;38.096;2022-07-23T02:51:57;100222.63;;;19.66;62.26
69780;BME280;57052;55.602;38.096;2022-07-23T02:54:23;100218.13;;;19.61;62.43
69780;BME280;57052;55.602;38.096;2022-07-23T02:56:49;100236.31;;;19.74;62.29
69780;BME280;57052;55.602;38.096;2022-07-23T02:59:17;100237.94;;;19.75;62.51
69780;BME280;57052;55.602;38.096;2022-07-23T03:01:42;100229.88;;;19.70;62.46
69780;BME280;57052;55.602;38.096;2022-07-23T03:04:08;100236.94;;;19.80;62.48
69780;BME280;57052;55.602;38.096;2022-07-23T03:06:34;100241.63;;;19.79;62.44
69780;BME280;57052;55.602;38.096;2022-07-23T03:08:59;100233.06;;;19.81;62.76
69780;BME280;57052;55.602;38.096;2022-07-23T03:11:25;100246.75;;;19.90;62.47
69780;BME280;57052;55.602;38.096;2022-07-23T03:13:50;100242.72;;;19.87;62.58
69780;BME280;57052;55.602;38.096;2022-07-23T03:16:16;100245.75;;;19.94;62.54
69780;BME280;57052;55.602;38.096;2022-07-23T03:18:42;100245.28;;;19.92;62.64
69780;BME280;57052;55.602;38.096;2022-07-23T03:21:07;100258.66;;;20.02;62.57
69780;BME280;57052;55.602;38.096;2022-07-23T03:23:34;100256.06;;;20.06;62.36
69780;BME280;57052;55.602;38.096;2022-07-23T03:25:59;100253.78;;;20.08;62.52
69780;BME280;57052;55.602;38.096;2022-07-23T03:28:25;100256.31;;;20.13;62.52
69780;BME280;57052;55.602;38.096;2022-07-23T03:30:50;100254.19;;;20.18;62.34
69780;BME280;57052;55.602;38.096;2022-07-23T03:33:17;100257.88;;;20.22;62.48
69780;BME280;57052;55.602;38.096;2022-07-23T03:35:44;100253.38;;;20.26;62.43
69780;BME280;57052;55.602;38.096;2022-07-23T03:38:09;100257.88;;;20.31;62.50
69780;BME280;57052;55.602;38.096;2022-07-23T03:40:35;100240.75;;;20.25;62.50
69780;BME280;57052;55.602;38.096;2022-07-23T03:43:00;100258.94;;;20.38;62.47
69780;BME280;57052;55.602;38.096;2022-07-23T03:45:26;100254.06;;;20.44;62.30
69780;BME280;57052;55.602;38.096;2022-07-23T03:47:52;100229.56;;;20.30;62.31
69780;BME280;57052;55.602;38.096;2022-07-23T03:50:18;100255.63;;;20.54;62.35
69780;BME280;57052;55.602;38.096;2022-07-23T03:52:43;100203.53;;;20.28;62.25
69780;BME280;57052;55.602;38.096;2022-07-23T03:55:09;100254.75;;;20.62;62.21
69780;BME280;57052;55.602;38.096;2022-07-23T03:57:36;100261.78;;;20.71;62.09
69780;BME280;57052;55.602;38.096;2022-07-23T04:00:06;100246.88;;;20.72;62.16
69780;BME280;57052;55.602;38.096;2022-07-23T04:02:34;100258.28;;;20.83;61.96
69780;BME280;57052;55.602;38.096;2022-07-23T04:04:59;100262.44;;;20.89;62.00
69780;BME280;57052;55.602;38.096;2022-07-23T04:07:26;100237.06;;;20.83;62.07
69780;BME280;57052;55.602;38.096;2022-07-23T04:09:52;100266.06;;;21.01;61.92
69780;BME280;57052;55.602;38.096;2022-07-23T04:12:17;100254.88;;;21.06;61.77
69780;BME280;57052;55.602;38.096;2022-07-23T04:14:43;100245.59;;;21.11;61.75
69780;BME280;57052;55.602;38.096;2022-07-23T04:17:09;100253.28;;;21.18;61.70
69780;BME280;57052;55.602;38.096;2022-07-23T04:19:34;100259.03;;;21.25;61.50
69780;BME280;57052;55.602;38.096;2022-07-23T04:22:05;100244.94;;;21.26;61.53
69780;BME280;57052;55.602;38.096;2022-07-23T04:24:32;100260.69;;;21.38;61.40
69780;BME280;57052;55.602;38.096;2022-07-23T04:26:57;100247.94;;;21.33;61.35
69780;BME280;57052;55.602;38.096;2022-07-23T04:29:23;100242.47;;;21.45;61.22
69780;BME280;57052;55.602;38.096;2022-07-23T04:31:49;100250.63;;;21.54;61.22
69780;BME280;57052;55.602;38.096;2022-07-23T04:34:15;100252.47;;;21.62;61.30
69780;BME280;57052;55.602;38.096;2022-07-23T04:36:41;100251.09;;;21.68;60.89
69780;BME280;57052;55.602;38.096;2022-07-23T04:39:06;100252.16;;;21.76;60.61
69780;BME280;57052;55.602;38.096;2022-07-23T04:41:32;100248.72;;;21.79;60.80
69780;BME280;57052;55.602;38.096;2022-07-23T04:44:00;100247.31;;;21.85;60.55
69780;BME280;57052;55.602;38.096;2022-07-23T04:46:25;100247.25;;;21.93;60.19
69780;BME280;57052;55.602;38.096;2022-07-23T04:48:51;100251.25;;;21.96;60.03
69780;BME280;57052;55.602;38.096;2022-07-23T04:51:16;100238.75;;;21.98;59.92
69780;BME280;57052;55.602;38.096;2022-07-23T04:53:42;100243.91;;;22.12;60.08
69780;BME280;57052;55.602;38.096;2022-07-23T04:56:08;100248.03;;;22.18;59.76
69780;BME280;57052;55.602;38.096;2022-07-23T04:58:33;100230.69;;;22.17;59.53
69780;BME280;57052;55.602;38.096;2022-07-23T05:00:59;100239.97;;;22.25;59.65
69780;BME280;57052;55.602;38.096;2022-07-23T05:03:25;100227.44;;;22.27;59.76
69780;BME280;57052;55.602;38.096;2022-07-23T05:05:50;100240.88;;;22.41;59.66
69780;BME280;57052;55.602;38.096;2022-07-23T05:08:16;100242.72;;;22.49;58.88
69780;BME280;57052;55.602;38.096;2022-07-23T05:10:41;100249.25;;;22.57;59.08
69780;BME280;57052;55.602;38.096;2022-07-23T05:13:07;100239.25;;;22.64;58.95
69780;BME280;57052;55.602;38.096;2022-07-23T05:15:33;100231.75;;;22.65;59.04
69780;BME280;57052;55.602;38.096;2022-07-23T05:17:58;100233.56;;;22.73;58.95
69780;BME280;57052;55.602;38.096;2022-07-23T05:20:24;100236.19;;;22.81;58.57
69780;BME280;57052;55.602;38.096;2022-07-23T05:22:50;100233.63;;;22.88;58.94
69780;BME280;57052;55.602;38.096;2022-07-23T05:25:15;100232.56;;;22.93;58.78
69780;BME280;57052;55.602;38.096;2022-07-23T05:27:41;100223.97;;;22.94;58.59
69780;BME280;57052;55.602;38.096;2022-07-23T05:30:07;100231.72;;;23.05;58.64
69780;BME280;57052;55.602;38.096;2022-07-23T05:32:33;100228.25;;;23.08;57.97
69780;BME280;57052;55.602;38.096;2022-07-23T05:34:58;100216.41;;;23.07;58.05
69780;BME280;57052;55.602;38.096;2022-07-23T05:37:24;100208.66;;;23.13;57.92
69780;BME280;57052;55.602;38.096;2022-07-23T05:39:49;100230.41;;;23.30;57.92
69780;BME280;57052;55.602;38.096;2022-07-23T05:42:15;100214.91;;;23.25;57.75
69780;BME280;57052;55.602;38.096;2022-07-23T05:44:41;100229.59;;;23.41;57.84
69780;BME280;57052;55.602;38.096;2022-07-23T05:47:06;100222.56;;;23.44;57.39
69780;BME280;57052;55.602;38.096;2022-07-23T05:49:32;100221.03;;;23.46;57.44
69780;BME280;57052;55.602;38.096;2022-07-23T05:51:57;100223.63;;;23.55;57.38
69780;BME280;57052;55.602;38.096;2022-07-23T05:54:23;100231.38;;;23.65;57.24
69780;BME280;57052;55.602;38.096;2022-07-23T05:56:48;100235.13;;;23.73;56.90
69780;BME280;57052;55.602;38.096;2022-07-23T05:59:15;100228.97;;;23.79;56.81
69780;BME280;57052;55.602;38.096;2022-07-23T06:01:41;100233.16;;;23.89;56.71
69780;BME280;57052;55.602;38.096;2022-07-23T06:04:07;100227.78;;;23.96;56.68
69780;BME280;57052;55.602;38.096;2022-07-23T06:06:33;100217.16;;;23.98;56.24
69780;BME280;57052;55.602;38.096;2022-07-23T06:08:58;100203.44;;;24.01;56.47
69780;BME280;57052;55.602;38.096;2022-07-23T06:11:24;100229.13;;;24.17;56.31
69780;BME280;57052;55.602;38.096;2022-07-23T06:13:50;100203.72;;;24.12;55.75
69780;BME280;57052;55.602;38.096;2022-07-23T06:16:15;100218.66;;;24.27;55.64
69780;BME280;57052;55.602;38.096;2022-07-23T06:18:41;100225.97;;;24.35;55.69
69780;BME280;57052;55.602;38.096;2022-07-23T06:21:06;100217.66;;;24.35;55.61
69780;BME280;57052;55.602;38.096;2022-07-23T06:23:32;100225.47;;;24.48;55.38
69780;BME280;57052;55.602;38.096;2022-07-23T06:25:57;100225.19;;;24.53;55.07
69780;BME280;57052;55.602;38.096;2022-07-23T06:28:23;100232.09;;;24.63;54.91
69780;BME280;57052;55.602;38.096;2022-07-23T06:30:48;100227.50;;;24.70;55.09
69780;BME280;57052;55.602;38.096;2022-07-23T06:33:14;100223.31;;;24.76;54.80
69780;BME280;57052;55.602;38.096;2022-07-23T06:35:40;100209.47;;;24.76;54.90
69780;BME280;57052;55.602;38.096;2022-07-23T06:38:05;100221.22;;;24.89;54.48
69780;BME280;57052;55.602;38.096;2022-07-23T06:40:31;100221.34;;;24.96;53.78
69780;BME280;57052;55.602;38.096;2022-07-23T06:42:56;100225.44;;;25.02;53.66
69780;BME280;57052;55.602;38.096;2022-07-23T06:45:22;100207.63;;;25.03;53.51
69780;BME280;57052;55.602;38.096;2022-07-23T06:47:48;100217.78;;;25.15;53.11
69780;BME280;57052;55.602;38.096;2022-07-23T06:50:15;100221.81;;;25.21;52.86
69780;BME280;57052;55.602;38.096;2022-07-23T06:52:41;100210.81;;;25.24;52.48
69780;BME280;57052;55.602;38.096;2022-07-23T06:55:06;100202.94;;;25.26;52.75
69780;BME280;57052;55.602;38.096;2022-07-23T06:57:32;100189.16;;;25.30;52.14
69780;BME280;57052;55.602;38.096;2022-07-23T06:59:58;100208.72;;;25.40;51.93
69780;BME280;57052;55.602;38.096;2022-07-23T07:02:23;100198.50;;;25.44;51.58
69780;BME280;57052;55.602;38.096;2022-07-23T07:04:49;100196.63;;;25.48;51.80
69780;BME280;57052;55.602;38.096;2022-07-23T07:07:15;100198.34;;;25.57;51.49
69780;BME280;57052;55.602;38.096;2022-07-23T07:09:40;100193.31;;;25.62;51.70
69780;BME280;57052;55.602;38.096;2022-07-23T07:12:06;100194.16;;;25.66;51.23
69780;BME280;57052;55.602;38.096;2022-07-23T07:14:32;100202.22;;;25.75;51.06
69780;BME280;57052;55.602;38.096;2022-07-23T07:16:57;100192.28;;;25.74;51.18
69780;BME280;57052;55.602;38.096;2022-07-23T07:19:23;100192.78;;;25.79;50.36
69780;BME280;57052;55.602;38.096;2022-07-23T07:21:48;100197.69;;;25.89;50.36
69780;BME280;57052;55.602;38.096;2022-07-23T07:24:14;100205.69;;;25.94;50.20
69780;BME280;57052;55.602;38.096;2022-07-23T07:26:40;100196.25;;;25.99;49.62
69780;BME280;57052;55.602;38.096;2022-07-23T07:29:06;100186.78;;;26.00;49.39
69780;BME280;57052;55.602;38.096;2022-07-23T07:31:32;100184.91;;;26.07;49.49
69780;BME280;57052;55.602;38.096;2022-07-23T07:33:58;100195.00;;;26.19;49.50
69780;BME280;57052;55.602;38.096;2022-07-23T07:36:23;100194.28;;;26.26;49.26
69780;BME280;57052;55.602;38.096;2022-07-23T07:38:49;100194.75;;;26.31;49.31
69780;BME280;57052;55.602;38.096;2022-07-23T07:41:15;100195.25;;;26.37;48.47
69780;BME280;57052;55.602;38.096;2022-07-23T07:43:41;100194.53;;;26.43;48.23
69780;BME280;57052;55.602;38.096;2022-07-23T07:46:07;100165.78;;;26.29;48.05
69780;BME280;57052;55.602;38.096;2022-07-23T07:48:38;100199.09;;;26.58;47.48
69780;BME280;57052;55.602;38.096;2022-07-23T07:51:04;100200.84;;;26.70;47.76
69780;BME280;57052;55.602;38.096;2022-07-23T07:53:30;100195.41;;;26.77;47.94
69780;BME280;57052;55.602;38.096;2022-07-23T07:55:56;100201.16;;;26.95;47.42
69780;BME280;57052;55.602;38.096;2022-07-23T07:58:21;100186.91;;;27.00;47.46
69780;BME280;57052;55.602;38.096;2022-07-23T08:00:47;100194.66;;;27.17;47.19
69780;BME280;57052;55.602;38.096;2022-07-23T08:03:13;100203.91;;;27.28;46.73
69780;BME280;57052;55.602;38.096;2022-07-23T08:05:38;100204.44;;;27.41;46.33
69780;BME280;57052;55.602;38.096;2022-07-23T08:08:04;100192.59;;;27.47;46.72
69780;BME280;57052;55.602;38.096;2022-07-23T08:10:30;100196.59;;;27.53;45.31
69780;BME280;57052;55.602;38.096;2022-07-23T08:12:57;100202.19;;;27.57;45.12
69780;BME280;57052;55.602;38.096;2022-07-23T08:15:26;100203.81;;;27.58;44.91
69780;BME280;57052;55.602;38.096;2022-07-23T08:17:52;100201.09;;;27.68;45.66
69780;BME280;57052;55.602;38.096;2022-07-23T08:20:19;100189.19;;;27.68;45.41
69780;BME280;57052;55.602;38.096;2022-07-23T08:22:48;100200.78;;;27.77;45.14
69780;BME280;57052;55.602;38.096;2022-07-23T08:25:16;100206.78;;;27.82;44.76
69780;BME280;57052;55.602;38.096;2022-07-23T08:27:42;100202.81;;;27.83;44.64
69780;BME280;57052;55.602;38.096;2022-07-23T08:30:08;100188.88;;;27.83;44.02
69780;BME280;57052;55.602;38.096;2022-07-23T08:32:47;100186.09;;;27.83;43.68
69780;BME280;57052;55.602;38.096;2022-07-23T08:35:13;100192.09;;;27.85;44.15
69780;BME280;57052;55.602;38.096;2022-07-23T08:37:39;100192.06;;;27.82;44.10
69780;BME280;57052;55.602;38.096;2022-07-23T08:40:05;100184.84;;;27.70;44.16
69780;BME280;57052;55.602;38.096;2022-07-23T08:42:31;100189.56;;;27.66;43.96
69780;BME280;57052;55.602;38.096;2022-07-23T08:45:02;100181.59;;;27.65;44.15
69780;BME280;57052;55.602;38.096;2022-07-23T08:47:29;100170.50;;;27.68;44.25
69780;BME280;57052;55.602;38.096;2022-07-23T08:49:56;100186.09;;;27.83;44.31
69780;BME280;57052;55.602;38.096;2022-07-23T08:52:22;100174.25;;;27.90;44.04
69780;BME280;57052;55.602;38.096;2022-07-23T08:54:48;100177.03;;;27.93;44.27
69780;BME280;57052;55.602;38.096;2022-07-23T08:57:14;100178.34;;;28.03;43.58
69780;BME280;57052;55.602;38.096;2022-07-23T08:59:40;100172.41;;;28.08;43.22
69780;BME280;57052;55.602;38.096;2022-07-23T09:02:06;100164.06;;;28.08;43.10
69780;BME280;57052;55.602;38.096;2022-07-23T09:04:31;100172.06;;;28.13;42.58
69780;BME280;57052;55.602;38.096;2022-07-23T09:06:57;100177.63;;;28.17;42.05
69780;BME280;57052;55.602;38.096;2022-07-23T09:09:23;100168.91;;;28.18;42.59
69780;BME280;57052;55.602;38.096;2022-07-23T09:12:09;100163.69;;;28.17;42.41
69780;BME280;57052;55.602;38.096;2022-07-23T09:14:45;100170.06;;;28.17;42.30
69780;BME280;57052;55.602;38.096;2022-07-23T09:17:17;100166.13;;;28.18;42.43
69780;BME280;57052;55.602;38.096;2022-07-23T09:19:44;100166.91;;;28.22;42.56
69780;BME280;57052;55.602;38.096;2022-07-23T09:22:25;100159.00;;;28.28;42.05
69780;BME280;57052;55.602;38.096;2022-07-23T09:25:08;100156.69;;;28.40;41.11
69780;BME280;57052;55.602;38.096;2022-07-23T09:30:20;100152.09;;;28.83;43.22
69780;BME280;57052;55.602;38.096;2022-07-23T09:33:07;100147.38;;;29.08;43.73
69780;BME280;57052;55.602;38.096;2022-07-23T09:35:53;100150.22;;;29.33;42.16
69780;BME280;57052;55.602;38.096;2022-07-23T09:38:24;100154.97;;;29.40;40.90
69780;BME280;57052;55.602;38.096;2022-07-23T09:41:11;100153.38;;;29.39;39.84
69780;BME280;57052;55.602;38.096;2022-07-23T09:43:39;100148.19;;;29.51;41.09
69780;BME280;57052;55.602;38.096;2022-07-23T09:46:25;100141.03;;;29.57;38.90
69780;BME280;57052;55.602;38.096;2022-07-23T09:48:52;100137.84;;;29.59;39.41
69780;BME280;57052;55.602;38.096;2022-07-23T09:51:19;100137.47;;;29.53;39.38
69780;BME280;57052;55.602;38.096;2022-07-23T09:54:02;100121.50;;;29.40;39.41
69780;BME280;57052;55.602;38.096;2022-07-23T09:56:30;100134.66;;;29.50;39.21
69780;BME280;57052;55.602;38.096;2022-07-23T09:58:56;100130.69;;;29.40;39.14
69780;BME280;57052;55.602;38.096;2022-07-23T10:01:38;100146.59;;;29.54;39.24
69780;BME280;57052;55.602;38.096;2022-07-23T10:04:05;100127.09;;;29.61;38.48
69780;BME280;57052;55.602;38.096;2022-07-23T10:06:31;100129.47;;;29.83;38.90
69780;BME280;57052;55.602;38.096;2022-07-23T10:08:58;100136.59;;;30.06;38.86
69780;BME280;57052;55.602;38.096;2022-07-23T10:11:27;100130.22;;;30.09;37.93
69780;BME280;57052;55.602;38.096;2022-07-23T10:13:53;100139.41;;;30.02;37.82
69780;BME280;57052;55.602;38.096;2022-07-23T10:16:28;100137.41;;;30.03;38.02
69780;BME280;57052;55.602;38.096;2022-07-23T10:18:54;100139.81;;;29.97;38.20
69780;BME280;57052;55.602;38.096;2022-07-23T10:21:46;100126.66;;;29.94;37.31
69780;BME280;57052;55.602;38.096;2022-07-23T10:27:31;100093.19;;;29.59;37.26
69780;BME280;57052;55.602;38.096;2022-07-23T10:30:05;100121.06;;;30.01;38.14
69780;BME280;57052;55.602;38.096;2022-07-23T10:32:46;100118.63;;;30.07;38.36
69780;BME280;57052;55.602;38.096;2022-07-23T10:35:33;100115.84;;;30.10;37.37
69780;BME280;57052;55.602;38.096;2022-07-23T10:38:12;100115.75;;;30.31;38.07
69780;BME280;57052;55.602;38.096;2022-07-23T10:40:57;100107.31;;;30.56;36.78
69780;BME280;57052;55.602;38.096;2022-07-23T10:43:23;100101.16;;;30.86;37.08
69780;BME280;57052;55.602;38.096;2022-07-23T10:45:49;100105.34;;;31.15;37.06
69780;BME280;57052;55.602;38.096;2022-07-23T10:48:25;100104.09;;;31.23;36.53
69780;BME280;57052;55.602;38.096;2022-07-23T10:54:09;100107.75;;;31.13;35.20
69780;BME280;57052;55.602;38.096;2022-07-23T10:59:15;100101.06;;;31.00;36.72
69780;BME280;57052;55.602;38.096;2022-07-23T11:01:40;100096.75;;;30.85;36.62
69780;BME280;57052;55.602;38.096;2022-07-23T11:04:06;100090.84;;;30.72;36.58
69780;BME280;57052;55.602;38.096;2022-07-23T11:09:44;100072.28;;;30.41;36.08
69780;BME280;57052;55.602;38.096;2022-07-23T11:17:37;100079.94;;;30.92;34.76
69780;BME280;57052;55.602;38.096;2022-07-23T11:22:35;100056.75;;;31.43;34.95
69780;BME280;57052;55.602;38.096;2022-07-23T11:25:01;100077.94;;;31.85;34.64
69780;BME280;57052;55.602;38.096;2022-07-23T11:27:44;100059.66;;;31.77;33.24
69780;BME280;57052;55.602;38.096;2022-07-23T11:35:46;100073.16;;;32.53;33.71
69780;BME280;57052;55.602;38.096;2022-07-23T11:38:16;100070.66;;;32.85;33.09
69780;BME280;57052;55.602;38.096;2022-07-23T11:40:51;100068.84;;;33.25;32.10
69780;BME280;57052;55.602;38.096;2022-07-23T11:43:17;100061.94;;;33.52;32.06
69780;BME280;57052;55.602;38.096;2022-07-23T11:45:49;100054.66;;;33.78;31.53
69780;BME280;57052;55.602;38.096;2022-07-23T11:48:36;100057.66;;;34.10;29.12
69780;BME280;57052;55.602;38.096;2022-07-23T11:51:02;100054.88;;;34.46;31.24
69780;BME280;57052;55.602;38.096;2022-07-23T11:53:32;100058.03;;;34.84;30.31
69780;BME280;57052;55.602;38.096;2022-07-23T11:56:05;100060.41;;;34.86;28.83
69780;BME280;57052;55.602;38.096;2022-07-23T11:58:31;100055.41;;;34.77;30.22
69780;BME280;57052;55.602;38.096;2022-07-23T12:00:57;100058.97;;;34.61;30.62
69780;BME280;57052;55.602;38.096;2022-07-23T12:03:22;100060.41;;;34.50;30.77
69780;BME280;57052;55.602;38.096;2022-07-23T12:05:48;100061.16;;;34.34;30.63
69780;BME280;57052;55.602;38.096;2022-07-23T12:08:14;100050.72;;;34.15;30.99
69780;BME280;57052;55.602;38.096;2022-07-23T12:10:41;100056.41;;;33.92;30.68
69780;BME280;57052;55.602;38.096;2022-07-23T12:13:21;100052.72;;;33.75;29.76
69780;BME280;57052;55.602;38.096;2022-07-23T12:15:50;100050.28;;;33.54;30.58
69780;BME280;57052;55.602;38.096;2022-07-23T12:18:20;100060.84;;;33.23;29.76
69780;BME280;57052;55.602;38.096;2022-07-23T12:20:49;100045.50;;;33.31;30.06
69780;BME280;57052;55.602;38.096;2022-07-23T12:23:17;100042.38;;;33.49;30.10
69780;BME280;57052;55.602;38.096;2022-07-23T12:25:44;100038.09;;;33.64;30.25
69780;BME280;57052;55.602;38.096;2022-07-23T12:28:19;100040.28;;;33.96;30.28
69780;BME280;57052;55.602;38.096;2022-07-23T12:30:47;100036.44;;;34.26;29.35
69780;BME280;57052;55.602;38.096;2022-07-23T12:33:21;100026.25;;;34.51;28.82
69780;BME280;57052;55.602;38.096;2022-07-23T12:35:47;100036.75;;;34.83;28.87
69780;BME280;57052;55.602;38.096;2022-07-23T12:38:15;100032.53;;;34.75;28.54
69780;BME280;57052;55.602;38.096;2022-07-23T12:40:46;100029.38;;;34.73;28.67
69780;BME280;57052;55.602;38.096;2022-07-23T12:43:24;100031.66;;;34.62;28.35
69780;BME280;57052;55.602;38.096;2022-07-23T12:45:56;100009.34;;;34.35;28.53
69780;BME280;57052;55.602;38.096;2022-07-23T12:51:01;100014.53;;;33.97;28.19
69780;BME280;57052;55.602;38.096;2022-07-23T12:53:36;100025.88;;;33.74;29.22
69780;BME280;57052;55.602;38.096;2022-07-23T12:58:50;100026.03;;;33.44;27.96
69780;BME280;57052;55.602;38.096;2022-07-23T13:01:24;100024.41;;;33.43;29.05
69780;BME280;57052;55.602;38.096;2022-07-23T13:04:04;100012.84;;;33.41;28.97
69780;BME280;57052;55.602;38.096;2022-07-23T13:06:42;100004.06;;;33.39;28.95
69780;BME280;57052;55.602;38.096;2022-07-23T13:09:10;100014.19;;;33.33;29.62
69780;BME280;57052;55.602;38.096;2022-07-23T13:11:36;100009.00;;;33.31;29.71
69780;BME280;57052;55.602;38.096;2022-07-23T13:14:02;100014.13;;;33.13;29.84
69780;BME280;57052;55.602;38.096;2022-07-23T13:16:28;100002.97;;;33.10;30.39